Latest Weather Observations for Butlers Gorge

IDT60801

Issued at 3:31 am EST Thursday 27 April 2017 (issued every 30 minutes, with the page automatically refreshed every 10 minutes)

About weather observations | Map of weather stations | Latest weather observations for TAS | Other Formats
Station Details ID: 096003 Name: BUTLERS GORGE Lat: -42.28 Lon: 146.28 Height: 667.0 m
Data from the previous 72 hours. | See also: Recent months at Butlers Gorge
Date/Time
EST
Temp
°C
App
Temp
°C
Dew
Point
°C
Rel
Hum
%
Delta-T
°C
Wind Press
QNH
hPa
Press
MSL
hPa
Rain since
9am
mm
Dir  Spd
km/h
Gust
km/h
Spd
kts
Gust
kts
27/03:30am -0.9 -3.1 -1.6 95 0.2 CALM 0 0 0 0 - - 3.0
27/03:00am -0.6 -2.8 -1.3 95 0.2 CALM 0 0 0 0 - - 3.0
27/02:30am -0.6 -2.8 -1.3 95 0.2 CALM 0 0 0 0 - - 3.0
27/02:00am -0.4 -2.6 -1.2 94 0.3 CALM 0 0 0 0 - - 3.0
27/01:30am -0.5 -2.7 -1.3 94 0.3 CALM 0 0 0 0 - - 3.0
27/01:00am -0.1 -2.2 -0.9 94 0.3 CALM 0 0 0 0 - - 3.0
27/12:30am 0.9 -1.1 0.0 94 0.3 CALM 0 0 0 0 - - 3.0
27/12:00am 1.2 -0.7 0.3 94 0.3 CALM 0 6 0 3 - - 3.0
 
Date/Time
EST
Temp
°C
App
Temp
°C
Dew
Point
°C
Rel
Hum
%
Delta-T
°C
Wind Press
QNH
hPa
Press
MSL
hPa
Rain since
9am
mm
Dir  Spd
km/h
Gust
km/h
Spd
kts
Gust
kts
26/11:30pm 0.9 -1.8 0.0 94 0.3 WSW 4 7 2 4 - - 3.0
26/11:00pm 0.6 -2.2 -0.3 94 0.3 SW 4 9 2 5 - - 3.0
26/10:30pm 1.0 -1.0 0.1 94 0.3 CALM 0 0 0 0 - - 3.0
26/10:00pm 1.2 -0.8 0.2 93 0.4 CALM 0 0 0 0 - - 3.0
26/09:30pm 1.2 -1.5 0.0 92 0.5 ENE 4 6 2 3 - - 3.0
26/09:00pm 1.8 -0.1 0.6 92 0.5 CALM 0 6 0 3 - - 3.0
26/08:30pm 2.2 0.3 0.7 90 0.6 CALM 0 0 0 0 - - 3.0
26/08:00pm 1.8 -1.4 0.6 92 0.5 SSW 7 11 4 6 - - 2.8
26/07:30pm 1.0 -2.2 -0.3 91 0.5 NNE 6 7 3 4 - - 2.8
26/07:00pm 1.8 -1.3 0.0 88 0.7 N 6 11 3 6 - - 2.8
26/06:30pm 2.0 -1.6 0.5 90 0.6 SW 9 17 5 9 - - 2.8
26/06:00pm 1.1 -0.9 -0.2 91 0.5 CALM 0 6 0 3 - - 2.8
26/05:30pm 2.3 -0.8 -0.1 84 0.9 E 6 7 3 4 - - 2.8
26/05:00pm 2.9 -0.4 0.3 83 1.0 ESE 7 13 4 7 - - 2.8
26/04:30pm 3.2 -0.1 0.4 82 1.1 WSW 7 13 4 7 - - 2.8
26/04:00pm 3.1 -0.1 0.8 85 0.9 SSW 7 22 4 12 - - 2.8
26/03:30pm 4.1 0.7 2.0 86 0.9 NE 9 15 5 8 - - 1.8
26/03:00pm 3.3 0.1 0.9 84 1.0 SE 7 13 4 7 - - 1.2
26/02:30pm 5.0 1.9 1.5 78 1.4 W 7 11 4 6 - - 0.6
26/02:00pm 2.7 -0.6 0.3 84 0.9 W 7 19 4 10 - - 0.6
26/01:30pm 5.4 0.8 -0.8 64 2.4 SW 13 26 7 14 - - 0.2
26/01:00pm 4.4 -0.3 -1.6 65 2.3 SW 13 24 7 13 - - 0.2
26/12:30pm 4.3 0.0 0.8 78 1.4 WSW 13 19 7 10 - - 0.2
26/12:00pm 4.3 0.2 -0.5 71 1.9 SW 11 24 6 13 - - 0.0
26/11:30am 5.7 1.7 0.3 68 2.2 SW 11 28 6 15 - - 0.0
26/11:00am 4.0 0.6 -0.8 71 1.9 SSW 7 24 4 13 - - 0.0
26/10:30am 3.7 0.5 -0.7 73 1.7 W 6 11 3 6 - - 0.0
26/10:00am 3.6 0.2 -0.6 74 1.6 W 7 17 4 9 - - 0.0
26/09:30am 3.2 -1.3 -0.6 76 1.5 WSW 13 26 7 14 - - 0.0
26/09:00am 3.0 -1.4 0.1 81 1.1 SW 13 30 7 16 - - 3.4
26/08:30am 3.0 -1.5 -0.1 80 1.2 WSW 13 24 7 13 - - 3.4
26/08:00am 3.2 -1.7 -0.3 78 1.4 SW 15 28 8 15 - - 3.4
26/07:30am 2.7 -1.3 0.4 85 0.9 W 11 22 6 12 - - 3.4
26/07:00am 3.1 -0.5 0.3 82 1.1 WSW 9 19 5 10 - - 3.0
26/06:30am 3.0 -1.7 0.9 86 0.8 SW 15 32 8 17 - - 3.0
26/06:00am 3.2 -1.4 1.4 88 0.7 SW 15 35 8 19 - - 2.6
26/05:30am 3.8 -0.8 1.8 87 0.8 SW 15 28 8 15 - - 2.0
26/05:00am 3.9 -0.2 2.1 88 0.7 SW 13 33 7 18 - - 1.8
26/04:30am 4.1 -0.8 2.0 86 0.9 SW 17 32 9 17 - - 1.8
26/04:00am 4.5 0.5 2.7 88 0.8 SW 13 24 7 13 - - 1.4
26/03:30am 4.8 1.6 2.8 87 0.9 SW 9 24 5 13 - - 1.2
26/03:00am 4.8 2.0 3.1 89 0.7 WSW 7 15 4 8 - - 1.2
26/02:30am 4.8 1.9 2.8 87 0.9 WSW 7 15 4 8 - - 1.2
26/02:00am 4.9 1.2 2.6 85 1.0 SW 11 20 6 11 - - 1.0
26/01:30am 5.4 1.9 3.4 87 0.9 WSW 11 26 6 14 - - 0.8
26/01:00am 5.8 1.9 3.6 86 1.0 SW 13 26 7 14 - - 0.6
26/12:30am 6.3 2.6 4.3 87 0.9 WSW 13 26 7 14 - - 0.6
26/12:00am 6.2 3.7 4.8 91 0.6 SW 7 11 4 6 - - 0.4
 
Date/Time
EST
Temp
°C
App
Temp
°C
Dew
Point
°C
Rel
Hum
%
Delta-T
°C
Wind Press
QNH
hPa
Press
MSL
hPa
Rain since
9am
mm
Dir  Spd
km/h
Gust
km/h
Spd
kts
Gust
kts
25/11:30pm 6.1 3.8 4.6 90 0.7 SW 6 11 3 6 - - 0.2
25/11:00pm 5.7 4.4 4.3 91 0.6 CALM 0 6 0 3 - - 0.0
25/10:30pm 5.2 2.6 4.0 92 0.5 WSW 7 9 4 5 - - 0.0
25/10:00pm 5.1 2.5 3.4 89 0.7 W 6 9 3 5 - - 0.0
25/09:30pm 6.1 3.6 3.6 84 1.1 WSW 6 11 3 6 - - 0.0
25/09:00pm 7.3 4.2 3.5 77 1.7 W 9 22 5 12 - - 0.0
25/08:30pm 7.5 4.5 3.9 78 1.6 W 9 15 5 8 - - 0.0
25/08:00pm 8.0 4.3 4.2 77 1.7 W 13 20 7 11 - - 0.0
25/07:30pm 8.3 4.6 4.5 77 1.7 WNW 13 24 7 13 - - 0.0
25/07:00pm 7.7 5.2 4.5 80 1.5 WSW 7 11 4 6 - - 0.0
25/06:30pm 7.6 6.0 4.7 82 1.3 NW 2 13 1 7 - - 0.0
25/06:00pm 8.6 5.5 5.5 81 1.5 W 11 19 6 10 - - 0.0
25/05:30pm 9.2 5.9 4.6 73 2.1 WNW 11 17 6 9 - - 0.0
25/05:00pm 9.7 6.4 4.5 70 2.4 WNW 11 15 6 8 - - 0.0
25/04:30pm 10.0 7.4 4.2 67 2.7 NW 7 17 4 9 - - 0.0
25/04:00pm 10.5 7.6 4.6 67 2.8 W 9 19 5 10 - - 0.0
25/03:30pm 11.1 8.1 4.3 63 3.2 WSW 9 19 5 10 - - 0.0
25/03:00pm 11.7 9.3 5.1 64 3.1 SW 7 15 4 8 - - 0.0
25/02:30pm 11.1 8.7 5.2 67 2.8 W 7 11 4 6 - - 0.0
25/02:00pm 10.6 7.6 4.1 64 3.0 WNW 9 17 5 9 - - 0.0
25/01:30pm 10.3 7.1 4.9 69 2.5 W 11 19 6 10 - - 0.0
25/01:00pm 10.4 7.4 6.0 74 2.1 WSW 11 17 6 9 - - 0.0
25/12:30pm 10.5 8.0 6.6 77 1.9 W 9 19 5 10 - - 0.0
25/12:00pm 10.5 8.0 6.6 77 1.9 W 9 15 5 8 - - 0.0
25/11:30am 10.0 7.6 6.9 81 1.5 WSW 9 15 5 8 - - 0.0
25/11:00am 9.6 6.9 7.2 85 1.2 SW 11 19 6 10 - - 0.0
25/10:30am 10.0 7.7 7.4 84 1.3 SW 9 15 5 8 - - 0.0
25/10:00am 10.2 7.9 7.6 84 1.3 WNW 9 15 5 8 - - 0.0
25/09:30am 9.9 8.3 7.8 87 1.0 WSW 6 11 3 6 - - 0.0
25/09:00am 9.5 8.1 8.7 95 0.4 NNW 6 11 3 6 - - 1.0
25/08:30am 9.1 8.4 8.5 96 0.3 SW 2 11 1 6 - - 1.0
25/08:00am 8.8 8.4 8.2 96 0.3 CALM 0 0 0 0 - - 1.0
25/07:30am 8.5 8.0 7.9 96 0.3 CALM 0 0 0 0 - - 1.0
25/07:00am 8.3 7.8 7.7 96 0.3 CALM 0 0 0 0 - - 1.0
25/06:30am 8.2 7.6 7.6 96 0.3 CALM 0 0 0 0 - - 1.0
25/06:00am 8.1 7.5 7.5 96 0.3 CALM 0 0 0 0 - - 1.0
25/05:30am 7.9 7.2 7.1 95 0.4 CALM 0 0 0 0 - - 1.0
25/05:00am 8.3 7.7 7.5 95 0.4 CALM 0 0 0 0 - - 1.0
25/04:30am 8.2 7.6 7.4 95 0.4 CALM 0 0 0 0 - - 1.0
25/04:00am 8.4 7.8 7.6 95 0.4 CALM 0 0 0 0 - - 1.0
25/03:30am 8.4 7.8 7.6 95 0.4 CALM 0 6 0 3 - - 1.0
25/03:00am 8.6 8.1 7.8 95 0.4 CALM 0 0 0 0 - - 1.0
25/02:30am 8.4 7.8 7.6 95 0.4 CALM 0 0 0 0 - - 1.0
25/02:00am 8.5 8.0 7.7 95 0.4 CALM 0 0 0 0 - - 1.0
25/01:30am 8.6 8.1 7.8 95 0.4 CALM 0 0 0 0 - - 1.0
25/01:00am 8.6 8.1 7.8 95 0.4 CALM 0 0 0 0 - - 1.0
25/12:30am 8.4 7.8 7.6 95 0.4 CALM 0 0 0 0 - - 1.0
25/12:00am 8.5 8.0 7.7 95 0.4 CALM 0 0 0 0 - - 1.0
 
Date/Time
EST
Temp
°C
App
Temp
°C
Dew
Point
°C
Rel
Hum
%
Delta-T
°C
Wind Press
QNH
hPa
Press
MSL
hPa
Rain since
9am
mm
Dir  Spd
km/h
Gust
km/h
Spd
kts
Gust
kts
24/11:30pm 8.9 8.5 8.1 95 0.4 CALM 0 0 0 0 - - 1.0
24/11:00pm 9.0 8.6 8.2 95 0.4 CALM 0 0 0 0 - - 1.0
24/10:30pm 9.2 8.8 8.3 94 0.5 CALM 0 0 0 0 - - 1.0
24/10:00pm 9.6 8.2 8.7 94 0.5 WSW 6 7 3 4 - - 1.0
24/09:30pm 9.8 9.6 8.9 94 0.5 CALM 0 0 0 0 - - 1.0
24/09:00pm 10.1 9.9 9.2 94 0.5 CALM 0 0 0 0 - - 1.0
24/08:30pm 10.3 10.1 9.2 93 0.6 CALM 0 0 0 0 - - 1.0
24/08:00pm 10.5 10.4 9.4 93 0.6 CALM 0 0 0 0 - - 1.0
24/07:30pm 10.5 9.3 9.4 93 0.6 W 6 9 3 5 - - 1.0
24/07:00pm 10.8 10.8 9.7 93 0.6 CALM 0 0 0 0 - - 1.0
24/06:30pm 10.9 10.9 9.7 92 0.6 CALM 0 0 0 0 - - 1.0
24/06:00pm 11.0 10.6 9.6 91 0.7 WSW 2 7 1 4 - - 1.0
24/05:30pm 11.9 10.6 9.8 87 1.1 SW 7 11 4 6 - - 1.0
24/05:00pm 12.7 12.8 10.2 85 1.3 CALM 0 7 0 4 - - 0.8
24/04:30pm 13.6 13.8 10.4 81 1.7 CALM 0 2 0 1 - - 0.8
24/04:00pm 13.7 13.8 10.3 80 1.8 CALM 0 4 0 2 - - 0.8
24/03:30pm 14.2 12.9 9.2 72 2.6 WSW 6 11 3 6 - - 0.8
24/03:00pm 14.7 14.2 9.3 70 2.9 NW 2 6 1 3 - - 0.8
24/02:30pm 14.0 13.5 9.4 74 2.4 W 2 7 1 4 - - 0.8
24/02:00pm 13.7 12.3 9.6 76 2.2 W 7 13 4 7 - - 0.8
24/01:30pm 13.2 11.9 10.0 81 1.7 NW 7 11 4 6 - - 0.8
24/01:00pm 12.8 11.1 10.0 83 1.5 WNW 9 13 5 7 - - 0.8
24/12:30pm 12.1 12.0 10.8 92 0.7 WSW 2 7 1 4 - - 0.8
24/12:00pm 11.8 12.0 10.7 93 0.6 CALM 0 0 0 0 - - 0.4
24/11:30am 11.4 11.5 10.3 93 0.6 CALM 0 0 0 0 - - 0.0
24/11:00am 11.2 11.0 10.3 94 0.5 NNE 2 7 1 4 - - 0.0
24/10:30am 10.7 10.3 9.8 94 0.5 NE 2 6 1 3 - - 0.0
24/10:00am 10.3 9.4 9.4 94 0.5 NNE 4 7 2 4 - - 0.0
24/09:30am 10.2 9.7 9.4 95 0.4 NE 2 7 1 4 - - 0.0
24/09:00am 9.8 9.2 9.0 95 0.4 NNE 2 7 1 4 - - 8.2
24/08:30am 9.5 8.5 8.7 95 0.4 ENE 4 7 2 4 - - 8.2
24/08:00am 9.3 9.0 8.5 95 0.4 CALM 0 0 0 0 - - 8.2
24/07:30am 8.9 8.5 8.1 95 0.4 CALM 0 0 0 0 - - 8.2
24/07:00am 8.9 8.5 8.1 95 0.4 CALM 0 0 0 0 - - 8.2
24/06:30am 9.0 8.6 8.2 95 0.4 CALM 0 6 0 3 - - 8.2
24/06:00am 9.0 7.4 8.2 95 0.4 NNE 6 7 3 4 - - 8.0
24/05:30am 9.1 8.7 8.3 95 0.4 CALM 0 0 0 0 - - 7.6
24/05:00am 9.1 8.0 8.3 95 0.4 NNE 4 6 2 3 - - 7.6
24/04:30am 9.1 8.7 8.3 95 0.4 CALM 0 2 0 1 - - 7.4
24/04:00am 9.1 7.4 8.3 95 0.4 NNE 7 9 4 5 - - 7.0

Other Formats:

Comma delimited format used in spreadsheet applications
http://www.bom.gov.au/fwo/IDT60801/IDT60801.94959.axf

JavaScript Object Notation format (JSON) in row-major order
http://www.bom.gov.au/fwo/IDT60801/IDT60801.94959.json